Freedom of the Seas — C6UZ7 — position and weather

sailwx.info

Track history (hours):
 
Tides and Currents Weather Stations Pressure Air Temp Water Temp Dewpoint Dewpoint Depression Visibility Wind Speed Wind Dir Waves Ship Positions

Freedom of the Seas

Last reported at 2018-Sep-22 02:58 UTC. Time now 2018-Sep-24 21:01 UTC.
Position N 18°10' W 064°56'.

Length 339 m; draft 9 m.

Type: Passenger vessel. MMSI: 309906000.

Date/timePositionNaut miles runAvg speedWind from/ knotsBaromVisibWave heightAir tempDewpointWater temp
2018-Sep-22 02:58N 18°10' W 064°56'  
2018-Sep-17 01:25N 17°39' W 063°05'2 5.7
2018-Sep-17 01:01N 17°41' W 063°05'0 5.9
2018-Sep-17 00:58N 17°42' W 063°05'3 5.7
2018-Sep-17 00:28N 17°44' W 063°06'2 4.6
2018-Sep-17 00:01N 17°46' W 063°06'1 6.0
2018-Sep-16 23:52N 17°47' W 063°06'12 5.4
2018-Sep-16 21:42N 17°59' W 063°06'3 6.6
2018-Sep-16 21:18N 18°00' W 063°04'0 0.0
2018-Sep-16 11:33N 18°00' W 063°03'0 8.0
2018-Sep-16 11:29N 18°00' W 063°04'913.5
2018-Sep-16 10:49N 18°01' W 063°13'8917.9
2018-Sep-16 05:51N 18°11' W 064°47'617.3
2018-Sep-16 05:30N 18°13' W 064°53'  
Track history (hours):
 
Tides and Currents Weather Stations Pressure Air Temp Water Temp Dewpoint Dewpoint Depression Visibility Wind Speed Wind Dir Waves Ship Positions

Freedom of the Seas

Last reported at 2018-Sep-22 02:58 UTC. Time now 2018-Sep-24 21:01 UTC.
Position N 18°10' W 064°56'.

Length 339 m; draft 9 m.

Type: Passenger vessel. MMSI: 309906000.

Date/timePositionNaut miles runAvg speedWind from/ knotsBaromVisibWave heightAir tempDewpointWater temp
2018-Sep-22 02:58N 18°10' W 064°56'  
2018-Sep-17 01:25N 17°39' W 063°05'2 5.7
2018-Sep-17 01:01N 17°41' W 063°05'0 5.9
2018-Sep-17 00:58N 17°42' W 063°05'3 5.7
2018-Sep-17 00:28N 17°44' W 063°06'2 4.6
2018-Sep-17 00:01N 17°46' W 063°06'1 6.0
2018-Sep-16 23:52N 17°47' W 063°06'12 5.4
2018-Sep-16 21:42N 17°59' W 063°06'3 6.6
2018-Sep-16 21:18N 18°00' W 063°04'0 0.0
2018-Sep-16 11:33N 18°00' W 063°03'0 8.0
2018-Sep-16 11:29N 18°00' W 063°04'913.5
2018-Sep-16 10:49N 18°01' W 063°13'8917.9
2018-Sep-16 05:51N 18°11' W 064°47'617.3
2018-Sep-16 05:30N 18°13' W 064°53'  

Dump ship's entire track history